Time;durP1;ratioP1;P1;durP2;ratioP2;P2;SDS_P1;SDS_P2;PMS_P1;PMS_P2;Temp;Humidity;BMP_temperature;BMP_pressure;BME280_temperature;BME280_humidity;BME280_pressure;Samples;Min_cycle;Max_cycle;Signal;HPM_P1;HPM_P2
2022/07/06 00:01:23;;;;;;;;;3.50;3.00;;;;;21.00;32.15;102148.81;5015711;28;45310;-62
2022/07/06 00:03:48;;;;;;;;;2.00;2.00;;;;;20.98;32.16;102150.72;5035814;28;45749;-62
2022/07/06 00:06:14;;;;;;;;;4.50;4.50;;;;;20.94;32.15;102149.94;5020424;28;47160;-62
2022/07/06 00:08:39;;;;;;;;;3.50;3.50;;;;;20.92;32.12;102145.56;5019283;28;45313;-62
2022/07/06 00:11:05;;;;;;;;;4.25;4.00;;;;;20.89;32.47;102149.22;5020588;28;45311;-62
2022/07/06 00:13:30;;;;;;;;;3.25;3.25;;;;;20.87;32.78;102144.88;5020692;28;45269;-62
2022/07/06 00:15:56;;;;;;;;;5.75;3.75;;;;;20.81;32.61;102143.28;5019799;28;46215;-62
2022/07/06 00:18:21;;;;;;;;;4.50;4.50;;;;;20.80;33.00;102144.19;5020581;28;45430;-62
2022/07/06 00:20:47;;;;;;;;;5.00;5.00;;;;;20.78;32.66;102149.59;5020175;28;45522;-62
2022/07/06 00:23:12;;;;;;;;;1.75;1.00;;;;;20.76;32.60;102142.56;5020551;28;45327;-62
2022/07/06 00:25:37;;;;;;;;;3.25;3.25;;;;;20.70;32.64;102151.63;5020037;28;46268;-62
2022/07/06 00:28:03;;;;;;;;;5.00;3.75;;;;;20.69;32.86;102147.22;5020309;28;45418;-62
2022/07/06 00:30:28;;;;;;;;;4.75;4.00;;;;;20.68;33.23;102147.25;5020194;28;45363;-62
2022/07/06 00:32:54;;;;;;;;;3.50;3.50;;;;;20.66;32.83;102151.78;5018812;28;45377;-63
2022/07/06 00:35:20;;;;;;;;;4.00;4.00;;;;;20.62;33.33;102146.53;5019896;28;45443;-62
2022/07/06 00:37:45;;;;;;;;;3.50;3.50;;;;;20.59;33.00;102145.78;5020228;28;45410;-62
2022/07/06 00:40:11;;;;;;;;;2.00;2.00;;;;;20.54;33.33;102145.06;5018937;28;45418;-62
2022/07/06 00:42:43;;;;;;;;;2.00;2.00;;;;;20.54;33.03;102140.59;5018710;28;45577;-62
2022/07/06 00:45:10;;;;;;;;;5.00;4.00;;;;;20.26;33.46;102100.59;5019765;28;46378;-62
2022/07/06 00:47:35;;;;;;;;;4.50;4.00;;;;;20.48;33.60;102139.91;5019643;28;45423;-62
2022/07/06 00:50:14;;;;;;;;;5.25;5.25;;;;;20.48;33.70;102153.28;5019731;28;45769;-62
2022/07/06 00:52:45;;;;;;;;;3.75;3.75;;;;;20.42;33.85;102143.69;5019994;28;45223;-63
2022/07/06 00:55:12;;;;;;;;;5.25;4.00;;;;;20.39;33.85;102144.66;5019677;28;46311;-62
2022/07/06 00:57:39;;;;;;;;;4.75;4.75;;;;;20.38;33.74;102136.72;5020036;28;45375;-62
2022/07/06 01:00:07;;;;;;;;;4.25;4.00;;;;;20.30;33.89;102135.16;5016315;28;45388;-62
2022/07/06 01:02:33;;;;;;;;;4.00;4.00;;;;;20.32;33.78;102148.44;5019383;28;45421;-62
2022/07/06 01:04:59;;;;;;;;;5.00;5.00;;;;;20.29;34.07;102148.56;5019102;28;46479;-63
2022/07/06 01:07:25;;;;;;;;;3.50;2.75;;;;;20.25;34.13;102142.47;5019756;28;45249;-62
2022/07/06 01:09:51;;;;;;;;;4.00;4.00;;;;;20.23;34.11;102143.44;5019741;28;45504;-62
2022/07/06 01:12:16;;;;;;;;;3.25;3.25;;;;;20.16;34.00;102144.53;5019652;28;45388;-62
2022/07/06 01:14:42;;;;;;;;;3.00;3.00;;;;;20.15;34.36;102149.03;5019453;28;45245;-63
2022/07/06 01:17:08;;;;;;;;;4.50;4.50;;;;;20.14;34.25;102139.25;5034903;28;45253;-63
2022/07/06 01:19:34;;;;;;;;;3.50;3.00;;;;;20.12;34.19;102144.66;5034747;28;45417;-63
2022/07/06 01:21:59;;;;;;;;;3.00;3.00;;;;;20.09;34.19;102151.88;5019514;28;45524;-63
2022/07/06 01:24:25;;;;;;;;;4.00;4.00;;;;;20.08;34.03;102153.66;5019150;28;46127;-63
2022/07/06 01:26:50;;;;;;;;;2.50;1.00;;;;;20.05;34.25;102151.09;5019630;28;45170;-63
2022/07/06 01:29:15;;;;;;;;;3.25;3.25;;;;;20.01;34.61;102140.56;5019489;28;45310;-62
2022/07/06 01:31:48;;;;;;;;;4.75;3.00;;;;;20.01;34.54;102144.09;5019427;28;45266;-62
2022/07/06 01:34:14;;;;;;;;;3.25;3.00;;;;;20.00;34.45;102152.16;5019024;28;46926;-62
2022/07/06 01:36:39;;;;;;;;;4.00;4.00;;;;;19.97;34.46;102148.69;5017710;28;45279;-62
2022/07/06 01:39:05;;;;;;;;;2.00;2.00;;;;;19.94;34.74;102153.25;5019291;28;45248;-62
2022/07/06 01:41:30;;;;;;;;;4.75;3.00;;;;;19.91;34.43;102146.22;5019262;28;50744;-62
2022/07/06 01:43:55;;;;;;;;;2.50;2.50;;;;;19.88;34.83;102148.94;5034463;28;47325;-63
2022/07/06 01:46:21;;;;;;;;;2.75;2.00;;;;;19.86;34.68;102149.91;5017942;28;45354;-62
2022/07/06 01:48:47;;;;;;;;;3.50;3.00;;;;;19.83;34.84;102150.03;5018946;28;45329;-62
2022/07/06 01:51:13;;;;;;;;;3.00;3.00;;;;;19.78;34.97;102150.13;5019258;28;45416;-62
2022/07/06 01:53:38;;;;;;;;;4.00;4.00;;;;;19.77;35.00;102145.72;5020734;28;45990;-61
2022/07/06 01:56:04;;;;;;;;;3.00;2.50;;;;;19.74;35.20;102151.16;5022733;28;45375;-61
2022/07/06 01:58:29;;;;;;;;;4.50;3.75;;;;;19.72;35.51;102150.31;5022516;28;45409;-62
2022/07/06 02:00:55;;;;;;;;;4.00;2.75;;;;;19.68;35.00;102152.19;5019325;28;45463;-61
2022/07/06 02:03:21;;;;;;;;;6.50;3.25;;;;;19.64;35.11;102146.06;5022220;28;46114;-61
2022/07/06 02:05:46;;;;;;;;;4.00;4.00;;;;;19.63;35.67;102149.69;5022228;28;45345;-62
2022/07/06 02:08:11;;;;;;;;;4.50;4.50;;;;;19.62;35.49;102147.94;5022564;28;45240;-61
2022/07/06 02:10:37;;;;;;;;;5.50;3.00;;;;;19.58;35.52;102140.06;5022399;28;45609;-61
2022/07/06 02:13:02;;;;;;;;;3.00;3.00;;;;;19.59;35.46;102141.81;5022253;28;46117;-61
2022/07/06 02:15:28;;;;;;;;;5.50;4.00;;;;;19.56;35.56;102139.22;5022483;28;45217;-61
2022/07/06 02:17:53;;;;;;;;;3.25;3.25;;;;;19.53;35.63;102140.19;5020856;28;45250;-61
2022/07/06 02:20:18;;;;;;;;;5.50;5.00;;;;;19.50;35.87;102140.31;5022216;28;45271;-61
2022/07/06 02:22:43;;;;;;;;;4.25;3.50;;;;;19.46;35.47;102139.50;5022093;28;49261;-61
2022/07/06 02:25:09;;;;;;;;;4.00;4.00;;;;;19.45;35.90;102143.09;5022226;28;45375;-61
2022/07/06 02:27:34;;;;;;;;;4.75;3.75;;;;;19.44;35.72;102136.00;5022322;28;45157;-61
2022/07/06 02:29:59;;;;;;;;;3.25;2.25;;;;;19.42;35.84;102136.97;5022215;28;45240;-61
2022/07/06 02:32:25;;;;;;;;;4.00;3.00;;;;;19.39;35.90;102134.41;5021563;28;49343;-61
2022/07/06 02:34:50;;;;;;;;;5.25;4.00;;;;;19.36;35.90;102140.72;5021955;28;45485;-61
2022/07/06 02:37:16;;;;;;;;;4.75;4.75;;;;;19.30;36.17;102127.56;5022208;28;45275;-61
2022/07/06 02:39:41;;;;;;;;;4.00;4.00;;;;;19.31;36.17;102130.16;5022084;28;45472;-61
2022/07/06 02:42:07;;;;;;;;;6.00;5.00;;;;;19.26;35.92;102121.44;5020530;28;47199;-61
2022/07/06 02:44:32;;;;;;;;;4.75;4.00;;;;;19.26;36.29;102134.75;5022037;28;45322;-61
2022/07/06 02:46:57;;;;;;;;;2.50;2.50;;;;;19.24;36.33;102135.72;5021753;28;45325;-61
2022/07/06 02:49:22;;;;;;;;;5.50;5.50;;;;;19.23;36.23;102128.63;5021706;28;45612;-61
2022/07/06 02:51:48;;;;;;;;;4.00;4.00;;;;;19.20;36.48;102134.06;5021682;28;45399;-61
2022/07/06 02:54:13;;;;;;;;;5.00;5.00;;;;;19.15;36.31;102137.72;5021882;28;45284;-61
2022/07/06 02:56:38;;;;;;;;;6.00;3.75;;;;;19.14;36.48;102138.66;5021662;28;45304;-61
2022/07/06 02:59:04;;;;;;;;;3.25;3.00;;;;;19.13;36.40;102144.00;5021798;28;45463;-61
2022/07/06 03:01:29;;;;;;;;;4.00;4.00;;;;;19.11;36.51;102151.19;5016596;28;46221;-61
2022/07/06 03:03:54;;;;;;;;;4.50;4.50;;;;;19.08;36.85;102154.81;5020756;28;45451;-61
2022/07/06 03:06:20;;;;;;;;;4.75;4.00;;;;;19.06;36.47;102153.97;5020732;28;45458;-62
2022/07/06 03:08:45;;;;;;;;;5.00;3.00;;;;;19.05;36.88;102156.69;5021831;28;45403;-61
2022/07/06 03:11:10;;;;;;;;;4.00;4.00;;;;;19.03;36.95;102147.84;5021252;28;46197;-61
2022/07/06 03:13:35;;;;;;;;;5.00;4.75;;;;;19.00;37.18;102160.34;5021600;28;45346;-61
2022/07/06 03:16:01;;;;;;;;;5.00;5.00;;;;;18.96;37.21;102158.66;5021247;28;45280;-61
2022/07/06 03:18:27;;;;;;;;;5.00;5.00;;;;;18.94;36.99;102157.84;5021563;28;45234;-61
2022/07/06 03:20:52;;;;;;;;;5.00;5.00;;;;;18.92;36.97;102153.50;5020828;28;47335;-61
2022/07/06 03:23:18;;;;;;;;;3.00;3.00;;;;;18.87;37.41;102155.34;5036884;28;45293;-61
2022/07/06 03:25:43;;;;;;;;;5.00;4.50;;;;;18.86;37.09;102159.81;5021158;28;45228;-61
2022/07/06 03:28:08;;;;;;;;;3.75;3.75;;;;;18.84;37.13;102158.97;5021279;28;45452;-61
2022/07/06 03:30:34;;;;;;;;;6.75;5.75;;;;;18.81;37.27;102157.25;5020924;28;46254;-61
2022/07/06 03:32:59;;;;;;;;;8.25;5.75;;;;;18.80;37.14;102159.97;5021170;28;45218;-61
2022/07/06 03:35:24;;;;;;;;;6.75;5.50;;;;;18.77;37.13;102155.59;5020949;28;45513;-61
2022/07/06 03:37:50;;;;;;;;;7.00;5.50;;;;;18.74;37.48;102163.69;5021519;28;45296;-61
2022/07/06 03:40:15;;;;;;;;;4.00;3.75;;;;;18.70;37.27;102174.44;5020832;28;46099;-61
2022/07/06 03:42:40;;;;;;;;;8.00;6.75;;;;;18.70;37.70;102179.75;5021230;28;45201;-61
2022/07/06 03:45:07;;;;;;;;;5.25;5.25;;;;;18.68;37.62;102174.47;5019721;28;45430;-61
2022/07/06 03:47:32;;;;;;;;;5.25;5.00;;;;;18.64;37.40;102172.78;5020861;28;45445;-61
2022/07/06 03:49:57;;;;;;;;;6.25;6.00;;;;;18.63;37.51;102171.94;5020423;28;46235;-61
2022/07/06 03:52:23;;;;;;;;;5.25;5.00;;;;;18.63;37.80;102171.06;5036163;28;45413;-61
2022/07/06 03:54:48;;;;;;;;;7.50;6.25;;;;;18.61;37.65;102175.53;5021023;28;45330;-61
2022/07/06 03:57:13;;;;;;;;;7.00;6.50;;;;;18.60;37.83;102172.03;5019440;28;45524;-61
2022/07/06 03:59:39;;;;;;;;;6.25;4.00;;;;;18.58;37.82;102176.50;5017725;28;45966;-60
2022/07/06 04:02:05;;;;;;;;;4.00;4.00;;;;;18.59;37.66;102182.69;5020537;28;45273;-61
2022/07/06 04:04:30;;;;;;;;;5.00;5.00;;;;;18.57;37.90;102176.53;5020210;28;45455;-61
2022/07/06 04:06:56;;;;;;;;;5.00;5.00;;;;;18.57;37.97;102173.88;5020067;28;45635;-60
2022/07/06 04:09:21;;;;;;;;;4.50;4.50;;;;;18.52;37.81;102177.50;5020352;28;46128;-60
2022/07/06 04:11:46;;;;;;;;;4.00;4.00;;;;;18.54;38.03;102176.59;5020521;28;45461;-61
2022/07/06 04:14:11;;;;;;;;;5.75;5.75;;;;;18.51;37.86;102177.56;5020562;28;45226;-61
2022/07/06 04:16:37;;;;;;;;;6.25;6.25;;;;;18.51;37.98;102175.78;5020051;28;45416;-62
2022/07/06 04:19:02;;;;;;;;;5.75;5.75;;;;;18.51;38.03;102183.78;5020046;28;46026;-62
2022/07/06 04:21:27;;;;;;;;;6.75;6.50;;;;;18.50;38.14;102183.78;5020711;28;45161;-61
2022/07/06 04:23:53;;;;;;;;;14.00;13.25;;;;;18.50;38.10;102179.34;5020386;28;45407;-61
2022/07/06 04:26:18;;;;;;;;;7.25;6.00;;;;;18.45;38.11;102175.94;5020512;28;45490;-61
2022/07/06 04:28:43;;;;;;;;;7.50;7.00;;;;;18.45;38.12;102175.94;5020118;28;46299;-60
2022/07/06 04:31:09;;;;;;;;;7.25;7.25;;;;;18.47;38.54;102184.72;5020245;28;45193;-60
2022/07/06 04:33:34;;;;;;;;;6.25;6.00;;;;;18.47;38.37;102186.53;5020100;28;45558;-60
2022/07/06 04:36:00;;;;;;;;;6.00;5.25;;;;;18.47;38.33;102187.41;5020439;28;45240;-61
2022/07/06 04:38:25;;;;;;;;;5.25;5.00;;;;;18.46;38.03;102185.66;5019949;28;45315;-61
2022/07/06 04:40:50;;;;;;;;;7.25;7.25;;;;;18.45;38.52;102183.91;5020028;28;45240;-60
2022/07/06 04:43:16;;;;;;;;;6.00;6.00;;;;;18.45;38.25;102183.03;5020339;28;45201;-60
2022/07/06 04:45:41;;;;;;;;;7.00;6.75;;;;;18.44;38.56;102187.50;5019872;28;45169;-60
2022/07/06 04:48:08;;;;;;;;;5.00;5.00;;;;;18.42;38.73;102186.63;5020039;28;45364;-60
2022/07/06 04:50:33;;;;;;;;;6.50;6.25;;;;;18.43;38.51;102185.72;5019440;28;45401;-60
2022/07/06 04:52:58;;;;;;;;;7.00;5.00;;;;;18.42;38.61;102194.63;5019978;28;45256;-60
2022/07/06 04:55:24;;;;;;;;;7.25;6.75;;;;;18.43;38.63;102177.75;5019782;28;45249;-60
2022/07/06 04:57:51;;;;;;;;;6.75;5.75;;;;;18.43;38.63;102182.22;5019918;28;45955;-60
2022/07/06 05:00:17;;;;;;;;;8.25;7.00;;;;;18.43;38.70;102183.06;5015080;28;45301;-60
2022/07/06 05:02:42;;;;;;;;;7.00;6.00;;;;;18.42;38.89;102183.13;5019521;28;45475;-60
2022/07/06 05:05:09;;;;;;;;;9.50;7.00;;;;;18.42;38.71;102183.13;5018896;28;45601;-60
2022/07/06 05:07:39;;;;;;;;;8.50;8.50;;;;;18.42;38.82;102183.13;5018477;28;46944;-60
2022/07/06 05:10:06;;;;;;;;;11.50;7.75;;;;;18.41;39.00;102182.22;5019496;28;45364;-60
2022/07/06 05:12:31;;;;;;;;;6.75;6.50;;;;;18.42;38.86;102177.78;5019638;28;45525;-60
2022/07/06 05:14:57;;;;;;;;;13.00;8.75;;;;;18.43;38.90;102179.56;5035007;28;45649;-60
2022/07/06 05:17:22;;;;;;;;;7.00;6.50;;;;;18.42;38.59;102178.66;5019446;28;45463;-60
2022/07/06 05:19:48;;;;;;;;;8.25;7.25;;;;;18.42;38.96;102188.44;5019258;28;45286;-59
2022/07/06 05:22:13;;;;;;;;;9.50;8.00;;;;;18.41;39.04;102184.88;5019642;28;45348;-61
2022/07/06 05:24:38;;;;;;;;;6.00;6.00;;;;;18.40;38.86;102179.59;5019574;28;45428;-62
2022/07/06 05:27:04;;;;;;;;;6.75;6.25;;;;;18.40;39.15;102191.16;5019407;28;45200;-62
2022/07/06 05:29:29;;;;;;;;;8.50;8.50;;;;;18.36;39.16;102178.81;5022256;28;45269;-62
2022/07/06 05:31:54;;;;;;;;;10.00;9.00;;;;;18.39;39.23;102183.16;5023036;28;45248;-62
2022/07/06 05:34:19;;;;;;;;;7.25;7.25;;;;;18.40;39.30;102187.59;5022778;28;45225;-61
2022/07/06 05:36:45;;;;;;;;;7.00;6.25;;;;;18.39;39.44;102186.72;5022852;28;46179;-62
2022/07/06 05:39:10;;;;;;;;;7.00;7.00;;;;;18.40;39.31;102182.28;5022917;28;45428;-62
2022/07/06 05:41:36;;;;;;;;;8.00;8.00;;;;;18.39;39.42;102181.41;5023012;28;45710;-62
2022/07/06 05:44:01;;;;;;;;;6.50;6.50;;;;;18.42;39.34;102183.97;5022715;28;45201;-62
2022/07/06 05:46:28;;;;;;;;;10.75;6.25;;;;;18.43;39.42;102183.06;5022602;28;45373;-62
2022/07/06 05:51:37;;;;;;;;;7.25;6.25;;;;;18.46;39.23;102188.31;5022581;28;45461;-60
2022/07/06 05:54:02;;;;;;;;;7.25;7.25;;;;;18.47;39.47;102197.19;5022653;28;45299;-62
2022/07/06 05:56:27;;;;;;;;;6.75;6.75;;;;;18.47;39.67;102202.50;5022582;28;46416;-62
2022/07/06 05:58:53;;;;;;;;;8.25;6.75;;;;;18.51;39.60;102214.81;5037949;28;45836;-62
2022/07/06 06:01:18;;;;;;;;;7.50;6.75;;;;;18.52;39.44;102219.25;5023580;28;45390;-62
2022/07/06 06:03:43;;;;;;;;;7.75;7.75;;;;;18.54;39.59;102211.22;5022234;28;45429;-62
2022/07/06 06:06:09;;;;;;;;;8.25;8.00;;;;;18.56;39.40;102212.91;5022156;28;46259;-62
2022/07/06 06:08:34;;;;;;;;;9.00;7.00;;;;;18.59;39.64;102214.63;5022648;28;45449;-62
2022/07/06 06:10:59;;;;;;;;;6.00;5.25;;;;;18.61;39.89;102220.81;5022496;28;45492;-62
2022/07/06 06:13:25;;;;;;;;;6.50;6.50;;;;;18.62;39.55;102217.22;5022625;28;45443;-62
2022/07/06 06:15:50;;;;;;;;;10.75;7.00;;;;;18.65;39.86;102220.69;5022064;28;45315;-60
2022/07/06 06:18:18;;;;;;;;;9.00;7.25;;;;;18.69;39.65;102221.47;5022579;28;46554;-62
2022/07/06 06:20:44;;;;;;;;;10.00;10.00;;;;;18.69;39.53;102210.81;5037363;28;45230;-63
2022/07/06 06:23:09;;;;;;;;;7.50;7.50;;;;;18.72;39.20;102213.41;5022358;28;45197;-60
2022/07/06 06:25:37;;;;;;;;;6.25;5.50;;;;;18.76;39.70;102219.53;5021987;28;46196;-63
2022/07/06 06:28:05;;;;;;;;;5.75;5.75;;;;;18.79;39.43;102217.69;5037577;28;46284;-60
2022/07/06 06:30:30;;;;;;;;;11.75;9.00;;;;;18.82;39.51;102214.94;5021875;28;45274;-60
2022/07/06 06:33:11;;;;;;;;;7.00;7.00;;;;;18.88;39.44;102218.34;5037310;28;45331;-61
2022/07/06 06:35:37;;;;;;;;;7.25;6.50;;;;;18.90;39.59;102212.09;5021613;28;46102;-64
2022/07/06 06:38:03;;;;;;;;;6.00;5.25;;;;;18.92;39.48;102212.09;5022044;28;45332;-63
2022/07/06 06:40:28;;;;;;;;;8.00;6.50;;;;;18.91;39.29;102211.19;5021469;28;45452;-63
2022/07/06 06:42:54;;;;;;;;;6.50;6.50;;;;;18.99;39.46;102221.63;5021915;28;45312;-63
2022/07/06 06:45:19;;;;;;;;;8.00;7.00;;;;;19.02;39.39;102205.59;5021564;28;45988;-61
2022/07/06 06:47:44;;;;;;;;;8.50;6.00;;;;;19.04;39.62;102211.72;5021780;28;45468;-61
2022/07/06 06:50:09;;;;;;;;;7.00;7.00;;;;;19.09;39.59;102215.16;5021573;28;46470;-61
2022/07/06 06:52:35;;;;;;;;;3.75;3.75;;;;;19.11;39.19;102216.00;5021865;28;45237;-63
2022/07/06 06:55:00;;;;;;;;;5.25;4.00;;;;;19.16;39.58;102223.88;5021421;28;46187;-64
2022/07/06 06:57:26;;;;;;;;;6.00;4.00;;;;;19.18;38.92;102219.34;5021801;28;45376;-63
2022/07/06 06:59:51;;;;;;;;;6.50;4.75;;;;;19.23;39.00;102229.91;5018719;28;45546;-64
2022/07/06 07:02:17;;;;;;;;;7.00;5.50;;;;;19.26;39.30;102229.84;5021488;28;45513;-61
2022/07/06 07:04:42;;;;;;;;;5.25;4.75;;;;;19.30;39.29;102234.16;5021011;28;46809;-63
2022/07/06 07:07:08;;;;;;;;;4.00;3.75;;;;;19.36;38.94;102242.00;5021536;28;45758;-63
2022/07/06 07:09:33;;;;;;;;;5.25;4.00;;;;;19.40;39.09;102230.31;5020111;28;50115;-63
2022/07/06 07:11:58;;;;;;;;;5.25;5.25;;;;;19.45;38.57;102235.53;5021556;28;45643;-63
2022/07/06 07:14:23;;;;;;;;;6.00;4.00;;;;;19.48;38.63;102227.44;5021420;28;45429;-63
2022/07/06 07:16:49;;;;;;;;;4.25;4.00;;;;;19.52;38.37;102234.44;5021402;28;45308;-63
2022/07/06 07:19:14;;;;;;;;;4.00;4.00;;;;;19.56;38.74;102228.09;5021312;28;45335;-63
2022/07/06 07:21:39;;;;;;;;;7.00;5.00;;;;;19.57;38.41;102220.97;5020884;28;45565;-63
2022/07/06 07:24:07;;;;;;;;;4.00;4.00;;;;;19.63;38.36;102232.34;5021223;28;45193;-63
2022/07/06 07:26:32;;;;;;;;;7.00;6.00;;;;;19.69;38.14;102230.41;5021406;28;45343;-63
2022/07/06 07:28:57;;;;;;;;;4.50;4.00;;;;;19.71;38.50;102224.13;5021240;28;45309;-63
2022/07/06 07:31:23;;;;;;;;;4.25;3.00;;;;;19.75;38.15;102238.25;5020018;28;45327;-63
2022/07/06 07:33:48;;;;;;;;;7.75;5.75;;;;;19.83;37.98;102238.91;5020625;28;52100;-63
2022/07/06 07:36:13;;;;;;;;;3.75;3.75;;;;;19.87;38.18;102237.03;5021330;28;45306;-63
2022/07/06 07:38:39;;;;;;;;;4.00;4.00;;;;;19.91;38.00;102233.34;5021284;28;45390;-63
2022/07/06 07:41:05;;;;;;;;;5.75;5.75;;;;;19.94;37.81;102233.25;5020911;28;47420;-63
2022/07/06 07:43:31;;;;;;;;;3.00;3.00;;;;;20.00;38.16;102235.75;5020929;28;47143;-63
2022/07/06 07:45:56;;;;;;;;;2.75;2.75;;;;;20.05;38.10;102227.59;5020685;28;45323;-63
2022/07/06 07:48:21;;;;;;;;;5.25;4.00;;;;;20.09;37.60;102230.13;5020955;28;45264;-62
2022/07/06 07:50:47;;;;;;;;;6.00;4.50;;;;;20.13;37.72;102228.25;5019673;28;48902;-62
2022/07/06 07:53:12;;;;;;;;;5.25;5.25;;;;;20.19;37.50;102229.81;5020689;28;45199;-62
2022/07/06 07:55:37;;;;;;;;;5.00;5.00;;;;;20.21;37.35;102226.19;5021025;28;45220;-63
2022/07/06 07:58:03;;;;;;;;;5.50;5.00;;;;;20.22;37.84;102225.28;5020851;28;45254;-62
2022/07/06 08:00:28;;;;;;;;;3.25;3.25;;;;;20.24;37.88;102219.91;5017394;28;45198;-62
2022/07/06 08:02:54;;;;;;;;;6.00;4.50;;;;;20.25;37.64;102217.19;5018535;28;46702;-62
2022/07/06 08:05:20;;;;;;;;;6.00;5.50;;;;;20.32;37.62;102225.00;5020434;28;45433;-62
2022/07/06 08:07:45;;;;;;;;;6.75;5.25;;;;;20.36;37.82;102218.63;5020547;28;46032;-62
2022/07/06 08:10:11;;;;;;;;;4.50;4.25;;;;;20.41;37.45;102219.34;5020694;28;45268;-62
2022/07/06 08:12:37;;;;;;;;;4.75;4.75;;;;;20.47;37.38;102216.50;5020412;28;45913;-62
2022/07/06 08:15:03;;;;;;;;;6.75;6.00;;;;;20.53;37.23;102215.44;5020432;28;45422;-62
2022/07/06 08:17:29;;;;;;;;;4.25;4.25;;;;;20.59;37.27;102217.88;5020544;28;45252;-61
2022/07/06 08:19:54;;;;;;;;;5.00;4.00;;;;;20.64;37.59;102213.28;5020267;28;45458;-62
2022/07/06 08:22:20;;;;;;;;;3.50;3.50;;;;;20.68;37.25;102209.56;5020207;28;45349;-62
2022/07/06 08:24:45;;;;;;;;;5.00;5.00;;;;;20.75;37.57;102210.25;5018710;28;45293;-61
2022/07/06 08:27:10;;;;;;;;;4.00;4.00;;;;;20.80;36.97;102213.66;5020449;28;45457;-62
2022/07/06 08:29:36;;;;;;;;;4.25;3.50;;;;;20.85;37.60;102210.81;5020378;28;45271;-62
2022/07/06 08:32:01;;;;;;;;;3.00;3.00;;;;;20.91;36.99;102218.63;5019876;28;46307;-63
2022/07/06 08:34:26;;;;;;;;;6.25;5.00;;;;;20.96;37.36;102219.34;5020116;28;45366;-63
2022/07/06 08:36:52;;;;;;;;;5.50;4.75;;;;;20.99;37.41;102213.88;5020448;28;45217;-66
2022/07/06 08:39:17;;;;;;;;;2.00;2.00;;;;;21.07;37.49;102217.16;5020246;28;45269;-68
2022/07/06 08:41:47;;;;;;;;;5.25;5.25;;;;;21.12;37.44;102206.31;5020131;28;46051;-63
2022/07/06 08:44:13;;;;;;;;;3.75;3.75;;;;;21.20;36.82;102214.06;5020228;28;45509;-64
2022/07/06 08:46:40;;;;;;;;;5.25;5.00;;;;;21.23;37.05;102211.28;5019829;28;45315;-63
2022/07/06 08:49:06;;;;;;;;;4.75;4.00;;;;;21.32;36.76;102218.97;5019680;28;45530;-63
2022/07/06 08:51:34;;;;;;;;;2.50;2.50;;;;;21.38;37.26;102212.53;5019861;28;45351;-62
2022/07/06 08:54:01;;;;;;;;;5.00;4.00;;;;;21.46;37.44;102217.59;5020002;28;45299;-62
2022/07/06 08:56:28;;;;;;;;;4.75;4.75;;;;;21.53;37.03;102221.78;5019964;28;45242;-63
2022/07/06 08:58:54;;;;;;;;;6.00;6.00;;;;;21.59;37.08;102225.13;5019896;28;45397;-63
2022/07/06 09:01:20;;;;;;;;;4.25;4.25;;;;;21.69;36.72;102217.63;5016133;28;46308;-62
2022/07/06 09:03:49;;;;;;;;;5.25;4.50;;;;;21.77;37.31;102211.97;5021483;28;45330;-63
2022/07/06 09:06:16;;;;;;;;;6.00;6.00;;;;;21.84;37.09;102212.66;5023235;28;45365;-63
2022/07/06 09:08:43;;;;;;;;;5.25;5.25;;;;;21.92;36.97;102202.50;5023530;28;45413;-63
2022/07/06 09:11:09;;;;;;;;;7.00;6.00;;;;;21.99;37.00;102214.72;5023066;28;45550;-63
2022/07/06 09:13:34;;;;;;;;;4.50;4.00;;;;;22.03;36.64;102202.94;5023392;28;45295;-63
2022/07/06 09:16:13;;;;;;;;;6.75;5.75;;;;;22.10;36.70;102194.69;5023271;28;45549;-63
2022/07/06 09:18:42;;;;;;;;;6.25;6.25;;;;;22.15;36.40;102195.38;5023152;28;45276;-63
2022/07/06 09:21:07;;;;;;;;;7.00;7.00;;;;;22.23;36.58;102201.28;5023041;28;47090;-63
2022/07/06 09:23:34;;;;;;;;;8.50;7.75;;;;;22.29;36.46;102198.38;5023155;28;45411;-63
2022/07/06 09:26:02;;;;;;;;;12.75;11.50;;;;;22.36;36.62;102198.97;5023055;28;45401;-63
2022/07/06 09:28:42;;;;;;;;;6.50;6.00;;;;;22.45;36.74;102200.44;5023197;28;45299;-63
2022/07/06 09:31:07;;;;;;;;;5.00;5.00;;;;;22.52;36.40;102199.25;5021386;28;47197;-63
2022/07/06 09:33:33;;;;;;;;;7.25;7.25;;;;;22.59;36.28;102195.41;5022752;28;45417;-63
2022/07/06 09:36:01;;;;;;;;;6.00;5.25;;;;;22.65;36.26;102184.41;5022560;28;45415;-64
2022/07/06 09:38:26;;;;;;;;;3.50;3.50;;;;;22.71;35.87;102185.94;5023125;28;45494;-63
2022/07/06 09:40:51;;;;;;;;;7.50;6.75;;;;;22.78;35.98;102189.22;5022518;28;45392;-64
2022/07/06 09:43:19;;;;;;;;;5.50;5.50;;;;;22.83;36.24;102181.88;5023039;28;45252;-64
2022/07/06 09:45:46;;;;;;;;;6.25;5.25;;;;;22.92;36.36;102181.47;5022695;28;45478;-65
2022/07/06 09:48:23;;;;;;;;;5.25;4.25;;;;;23.01;35.57;102180.22;5022687;28;45323;-64
2022/07/06 09:50:52;;;;;;;;;5.25;4.25;;;;;23.08;35.77;102175.44;5009387;28;47180;-63
2022/07/06 09:53:19;;;;;;;;;6.00;3.00;;;;;23.16;35.33;102178.69;5022531;28;45244;-63
2022/07/06 09:55:46;;;;;;;;;3.50;3.50;;;;;23.23;35.37;102190.84;5022958;28;45283;-63
2022/07/06 09:58:12;;;;;;;;;6.00;6.00;;;;;23.31;35.04;102193.22;5022624;28;45523;-63
2022/07/06 10:00:38;;;;;;;;;5.25;5.25;;;;;23.37;35.25;102196.50;5019692;28;45415;-63
2022/07/06 10:03:04;;;;;;;;;6.00;4.00;;;;;23.46;34.99;102202.34;5022157;28;45430;-63
2022/07/06 10:05:31;;;;;;;;;5.50;4.75;;;;;23.54;35.20;102190.34;5022434;28;45682;-63
2022/07/06 10:08:00;;;;;;;;;5.25;4.50;;;;;23.61;34.87;102199.00;5021114;28;45426;-63
2022/07/06 10:10:28;;;;;;;;;6.50;5.75;;;;;23.70;34.98;102195.88;5021852;28;46152;-63
2022/07/06 10:12:57;;;;;;;;;7.00;6.75;;;;;23.82;35.01;102201.59;5022208;28;45327;-63
2022/07/06 10:15:28;;;;;;;;;6.00;5.25;;;;;23.90;34.94;102196.75;5036759;28;45278;-63
2022/07/06 10:17:55;;;;;;;;;5.00;4.25;;;;;23.94;34.49;102195.69;5022050;28;45328;-64
2022/07/06 10:20:21;;;;;;;;;3.75;3.75;;;;;24.08;34.35;102202.22;5021900;28;46283;-64
2022/07/06 10:22:48;;;;;;;;;3.25;3.25;;;;;24.17;34.44;102194.56;5022056;28;45388;-64
2022/07/06 10:25:18;;;;;;;;;7.00;6.50;;;;;24.26;34.74;102192.38;5022389;28;45232;-64
2022/07/06 10:27:46;;;;;;;;;4.25;3.75;;;;;24.36;34.32;102190.97;5021771;28;45569;-64
2022/07/06 10:30:12;;;;;;;;;5.00;5.00;;;;;24.47;34.20;102183.25;5022168;28;45339;-63
2022/07/06 10:32:40;;;;;;;;;4.25;4.25;;;;;24.58;34.34;102177.34;5021899;28;45222;-63
2022/07/06 10:35:06;;;;;;;;;6.25;5.25;;;;;24.70;34.36;102181.22;5021950;28;45447;-63
2022/07/06 10:37:33;;;;;;;;;5.00;5.00;;;;;24.82;34.18;102179.75;5022177;28;45552;-63
2022/07/06 10:42:49;;;;;;;;;4.00;4.00;;;;;25.13;34.25;102172.72;5021939;28;45368;-63
2022/07/06 10:45:21;;;;;;;;;6.00;5.50;;;;;25.29;33.85;102170.09;5021892;28;45236;-63
2022/07/06 10:47:47;;;;;;;;;3.50;3.50;;;;;25.51;34.21;102177.91;5021568;28;45415;-63
2022/07/06 10:50:13;;;;;;;;;6.00;6.00;;;;;25.76;34.00;102166.66;5021183;28;45252;-63
2022/07/06 10:52:48;;;;;;;;;6.00;5.00;;;;;26.19;34.18;102175.94;5021844;28;45217;-63
2022/07/06 10:55:36;;;;;;;;;7.25;4.25;;;;;26.77;34.74;102179.75;5021772;28;45216;-63
2022/07/06 10:58:03;;;;;;;;;5.75;4.50;;;;;27.34;34.91;102184.31;5021576;28;45588;-63
2022/07/06 11:00:49;;;;;;;;;4.00;4.00;;;;;27.99;34.89;102184.78;5018019;28;45433;-63
2022/07/06 11:03:30;;;;;;;;;4.50;4.50;;;;;28.47;34.44;102185.19;5021061;28;45393;-65
2022/07/06 11:06:00;;;;;;;;;4.50;4.00;;;;;28.79;33.70;102190.25;5036957;28;45195;-63
2022/07/06 11:08:46;;;;;;;;;5.50;5.50;;;;;29.01;33.24;102191.47;5020196;28;45333;-63
2022/07/06 11:11:14;;;;;;;;;5.00;5.00;;;;;29.14;32.91;102183.34;5020032;28;47200;-64
2022/07/06 11:14:02;;;;;;;;;5.50;5.50;;;;;29.31;33.08;102174.91;5021057;28;45270;-64
2022/07/06 11:16:36;;;;;;;;;5.00;3.75;;;;;29.65;33.14;102177.88;5021341;28;45497;-64
2022/07/06 11:19:14;;;;;;;;;8.00;8.00;;;;;30.08;32.90;102170.31;5021181;28;45318;-65
2022/07/06 11:21:47;;;;;;;;;8.75;5.50;;;;;30.47;33.20;102171.81;5021124;28;46150;-65
2022/07/06 11:24:16;;;;;;;;;8.00;7.00;;;;;30.78;32.68;102172.19;5021096;28;45359;-66
2022/07/06 11:26:44;;;;;;;;;6.00;6.00;;;;;31.04;31.98;102171.13;5018872;28;45432;-66